KAVL

Asheville Regional Airport

Asheville, North Carolina, USA
METAR KAVL 162154Z 35008KT 10SM FEW030 SCT041 08/03 A3007 RMK AO2 SLP180 T00830033
Observed Flight Rules
Dec-16 @ 21:54 UTC (51 minutes ago) Visual Flight Rules
Wind Visibility Clouds
350° at 8 knots 10 miles
  • Few at 3,000' AGL
  • Scattered at 4,100' AGL
Temperatures Readings
Current 8°C / 46°F
Dewpoint 3°C / 37°F
Humidity 71%
Altimeter 30.07" Hg
Pressure 1018 hPa
Elevation 670
METAR KAVL 162154Z 35008KT 10SM FEW030 SCT041 08/03 A3007 RMK AO2 SLP180 T00830033
Observed Flight Rules
Dec-16 @ 21:54 UTC
(51 minutes ago)
VFR
Wind Visibility
350° at 8 knots 10 miles
Clouds
  • Few at 3,000' AGL
  • Scattered at 4,100' AGL
Temperature Dewpoint
8°C / 46°F 3°C / 37°F
Humidity Altimeter Pressure
71% 30.07" Hg 1018 hPa